Time;durP1;ratioP1;P1;durP2;ratioP2;P2;SDS_P1;SDS_P2;PMS_P1;PMS_P2;Temp;Humidity;BMP_temperature;BMP_pressure;BME280_temperature;BME280_humidity;BME280_pressure;Samples;Min_cycle;Max_cycle;Signal;HPM_P1;HPM_P2
2023/07/06 00:01:37;;;;;;;10.05;5.68;;;;;;;;;;4992609;28;20234;-72
2023/07/06 00:04:02;;;;;;;7.10;4.55;;;;;;;;;;4987432;28;20179;-72
2023/07/06 00:06:28;;;;;;;8.70;4.50;;;;;;;;;;4995207;28;20242;-72
2023/07/06 00:08:53;;;;;;;9.88;4.85;;;;;;;;;;4983802;28;20646;-72
2023/07/06 00:11:20;;;;;;;9.27;5.05;;;;;;;;;;5000532;23;20210;-67
2023/07/06 00:13:47;;;;;;;7.68;4.00;;;;;;;;;;4946687;28;20640;-67
2023/07/06 00:16:12;;;;;;;9.43;4.85;;;;;;;;;;4951271;28;20185;-67
2023/07/06 00:18:39;;;;;;;10.27;4.68;;;;;;;;;;4939995;28;20270;-67
2023/07/06 00:21:04;;;;;;;9.40;4.22;;;;;;;;;;4953552;28;20585;-67
2023/07/06 00:23:31;;;;;;;10.02;4.50;;;;;;;;;;4926238;29;20213;-67
2023/07/06 00:25:56;;;;;;;9.68;4.70;;;;;;;;;;4929889;29;20289;-67
2023/07/06 00:28:28;;;;;;;7.28;4.65;;;;;;;;;;4941951;29;20260;-67
2023/07/06 00:30:55;;;;;;;9.20;4.70;;;;;;;;;;4925941;29;20234;-68
2023/07/06 00:33:21;;;;;;;10.45;4.05;;;;;;;;;;4932251;28;20573;-67
2023/07/06 00:35:47;;;;;;;7.28;4.45;;;;;;;;;;4935063;29;20185;-67
2023/07/06 00:38:14;;;;;;;10.88;5.10;;;;;;;;;;4933940;29;20186;-67
2023/07/06 00:40:41;;;;;;;12.35;5.00;;;;;;;;;;4930599;28;20264;-67
2023/07/06 00:43:10;;;;;;;14.82;5.93;;;;;;;;;;4937138;29;20206;-66
2023/07/06 00:45:36;;;;;;;9.40;4.60;;;;;;;;;;4935710;29;20236;-66
2023/07/06 00:48:01;;;;;;;12.13;5.22;;;;;;;;;;4923292;29;20663;-69
2023/07/06 00:50:29;;;;;;;9.98;4.38;;;;;;;;;;4933531;29;20182;-66
2023/07/06 00:52:58;;;;;;;9.75;4.97;;;;;;;;;;4934026;29;20278;-66
2023/07/06 00:55:25;;;;;;;5.97;4.22;;;;;;;;;;4931469;29;20268;-66
2023/07/06 00:57:54;;;;;;;12.25;4.68;;;;;;;;;;4936268;29;20599;-67
2023/07/06 01:00:21;;;;;;;8.50;4.55;;;;;;;;;;4928539;29;20282;-67
2023/07/06 01:02:47;;;;;;;10.40;4.35;;;;;;;;;;4928996;29;20198;-67
2023/07/06 01:05:13;;;;;;;8.80;4.57;;;;;;;;;;4924081;29;20188;-67
2023/07/06 01:07:42;;;;;;;14.63;4.97;;;;;;;;;;4932225;29;20245;-67
2023/07/06 01:10:09;;;;;;;6.43;4.57;;;;;;;;;;4928038;29;20675;-68
2023/07/06 01:12:34;;;;;;;10.18;4.50;;;;;;;;;;4937491;29;20205;-67
2023/07/06 01:14:59;;;;;;;14.40;4.90;;;;;;;;;;4927201;29;20178;-67
2023/07/06 01:17:27;;;;;;;6.75;4.13;;;;;;;;;;4936817;29;20189;-67
2023/07/06 01:19:53;;;;;;;8.57;3.83;;;;;;;;;;4933524;29;20177;-68
2023/07/06 01:22:23;;;;;;;8.68;4.97;;;;;;;;;;4936221;29;20197;-68
2023/07/06 01:24:51;;;;;;;7.10;4.53;;;;;;;;;;4950726;28;20300;-67
2023/07/06 01:27:36;;;;;;;17.40;4.72;;;;;;;;;;4937403;28;20320;-68
2023/07/06 01:30:12;;;;;;;8.45;3.85;;;;;;;;;;4922570;29;20268;-68
2023/07/06 01:32:41;;;;;;;11.18;4.57;;;;;;;;;;4924577;29;20201;-67
2023/07/06 01:35:13;;;;;;;8.35;4.13;;;;;;;;;;4922522;29;20181;-67
2023/07/06 01:37:41;;;;;;;8.07;4.53;;;;;;;;;;4922429;29;20177;-67
2023/07/06 01:40:09;;;;;;;13.63;4.38;;;;;;;;;;4923331;29;20248;-67
2023/07/06 01:42:35;;;;;;;9.65;4.68;;;;;;;;;;4922729;29;20252;-67
2023/07/06 01:45:08;;;;;;;10.40;4.53;;;;;;;;;;4922981;29;20189;-68
2023/07/06 01:47:39;;;;;;;15.55;5.47;;;;;;;;;;4923463;29;20198;-68
2023/07/06 01:50:06;;;;;;;4.75;3.45;;;;;;;;;;4922695;29;20186;-67
2023/07/06 01:52:37;;;;;;;8.77;3.80;;;;;;;;;;4923887;29;20253;-67
2023/07/06 01:55:35;;;;;;;5.43;3.20;;;;;;;;;;4927462;29;20178;-67
2023/07/06 01:58:10;;;;;;;7.85;4.30;;;;;;;;;;4917071;29;20264;-67
2023/07/06 02:00:36;;;;;;;8.40;3.88;;;;;;;;;;4929387;29;20533;-67
2023/07/06 02:03:05;;;;;;;8.05;3.53;;;;;;;;;;4927454;29;20198;-67
2023/07/06 02:05:30;;;;;;;7.30;3.55;;;;;;;;;;4923987;29;20202;-68
2023/07/06 02:07:55;;;;;;;9.23;3.70;;;;;;;;;;4931027;29;20229;-68
2023/07/06 02:10:22;;;;;;;10.25;3.97;;;;;;;;;;4934815;29;20197;-67
2023/07/06 02:12:47;;;;;;;9.75;3.67;;;;;;;;;;4948150;29;20582;-68
2023/07/06 02:15:18;;;;;;;8.50;4.10;;;;;;;;;;4940210;29;20182;-68
2023/07/06 02:17:44;;;;;;;6.63;3.10;;;;;;;;;;4928691;29;20286;-68
2023/07/06 02:20:10;;;;;;;7.45;3.53;;;;;;;;;;4931837;29;20723;-68
2023/07/06 02:22:35;;;;;;;9.80;3.88;;;;;;;;;;4931164;29;20237;-68
2023/07/06 02:25:01;;;;;;;8.23;4.00;;;;;;;;;;4942430;29;20208;-68
2023/07/06 02:27:26;;;;;;;9.27;4.25;;;;;;;;;;4934920;29;20336;-68
2023/07/06 02:29:51;;;;;;;12.13;4.97;;;;;;;;;;4940779;29;20198;-68
2023/07/06 02:32:16;;;;;;;7.22;3.95;;;;;;;;;;4940254;29;20700;-68
2023/07/06 02:34:42;;;;;;;9.35;3.55;;;;;;;;;;4946693;29;20525;-68
2023/07/06 02:37:08;;;;;;;7.25;3.13;;;;;;;;;;4944473;29;20294;-68
2023/07/06 02:39:33;;;;;;;12.98;4.22;;;;;;;;;;4938735;29;20173;-68
2023/07/06 02:41:58;;;;;;;8.95;4.93;;;;;;;;;;4938174;29;20201;-68
2023/07/06 02:44:24;;;;;;;6.60;3.78;;;;;;;;;;4937813;29;20178;-68
2023/07/06 02:46:50;;;;;;;10.75;4.35;;;;;;;;;;4939126;29;20292;-67
2023/07/06 02:49:15;;;;;;;7.97;3.97;;;;;;;;;;4934726;29;20194;-68
2023/07/06 02:51:41;;;;;;;5.53;3.40;;;;;;;;;;4943071;29;20276;-68
2023/07/06 02:54:06;;;;;;;9.30;4.22;;;;;;;;;;4938647;28;20256;-67
2023/07/06 02:56:32;;;;;;;10.20;3.92;;;;;;;;;;4944613;29;20263;-67
2023/07/06 02:58:57;;;;;;;9.65;4.30;;;;;;;;;;4937452;29;20190;-67
2023/07/06 03:01:23;;;;;;;9.20;3.95;;;;;;;;;;4939918;29;20222;-68
2023/07/06 03:03:51;;;;;;;14.52;3.92;;;;;;;;;;4938164;29;20194;-68
2023/07/06 03:06:16;;;;;;;10.23;3.58;;;;;;;;;;4928332;29;20213;-67
2023/07/06 03:08:42;;;;;;;12.07;3.50;;;;;;;;;;4938728;29;20284;-68
2023/07/06 03:11:07;;;;;;;8.00;3.08;;;;;;;;;;4939876;29;20181;-67
2023/07/06 03:13:32;;;;;;;10.43;3.20;;;;;;;;;;4943848;29;20276;-67
2023/07/06 03:15:58;;;;;;;10.57;3.38;;;;;;;;;;4941675;28;20182;-68
2023/07/06 03:18:24;;;;;;;11.73;3.85;;;;;;;;;;4943474;28;20732;-69
2023/07/06 03:20:50;;;;;;;9.68;3.85;;;;;;;;;;4939703;29;20249;-67
2023/07/06 03:23:15;;;;;;;8.30;3.65;;;;;;;;;;4944365;29;20209;-68
2023/07/06 03:25:40;;;;;;;10.40;4.22;;;;;;;;;;4945186;29;20201;-67
2023/07/06 03:28:05;;;;;;;6.65;4.20;;;;;;;;;;4941446;29;20549;-67
2023/07/06 03:30:31;;;;;;;16.40;4.25;;;;;;;;;;4935105;28;20192;-67
2023/07/06 03:32:59;;;;;;;14.43;4.07;;;;;;;;;;4944227;28;20204;-67
2023/07/06 03:35:24;;;;;;;11.20;4.38;;;;;;;;;;4940608;29;20645;-67
2023/07/06 03:37:50;;;;;;;7.70;4.05;;;;;;;;;;4935977;29;20197;-67
2023/07/06 03:40:15;;;;;;;9.52;4.55;;;;;;;;;;4936453;29;20559;-67
2023/07/06 03:42:42;;;;;;;12.32;3.95;;;;;;;;;;4935858;29;20224;-67
2023/07/06 03:45:08;;;;;;;12.48;4.35;;;;;;;;;;4944558;28;20196;-67
2023/07/06 03:47:34;;;;;;;8.50;3.55;;;;;;;;;;4935502;29;20209;-67
2023/07/06 03:50:00;;;;;;;9.23;4.25;;;;;;;;;;4933708;29;20285;-68
2023/07/06 03:52:27;;;;;;;11.55;5.35;;;;;;;;;;4931885;29;20871;-68
2023/07/06 03:54:53;;;;;;;10.93;3.85;;;;;;;;;;4948374;29;20186;-67
2023/07/06 03:57:19;;;;;;;8.75;4.05;;;;;;;;;;4935798;29;20209;-68
2023/07/06 03:59:44;;;;;;;11.20;4.65;;;;;;;;;;4945725;29;20220;-68
2023/07/06 04:02:10;;;;;;;10.13;4.13;;;;;;;;;;4933776;29;20198;-68
2023/07/06 04:04:35;;;;;;;12.32;5.45;;;;;;;;;;4928777;28;20686;-68
2023/07/06 04:07:01;;;;;;;9.57;3.47;;;;;;;;;;4933634;29;20707;-68
2023/07/06 04:09:28;;;;;;;12.25;4.57;;;;;;;;;;4933342;28;20278;-68
2023/07/06 04:11:53;;;;;;;8.18;3.90;;;;;;;;;;4937301;29;20205;-68
2023/07/06 04:14:24;;;;;;;10.88;4.00;;;;;;;;;;4936195;28;20182;-68
2023/07/06 04:16:54;;;;;;;9.38;4.15;;;;;;;;;;4922881;29;20232;-68
2023/07/06 04:19:19;;;;;;;13.55;4.45;;;;;;;;;;4925395;29;20291;-68
2023/07/06 04:21:44;;;;;;;7.60;3.72;;;;;;;;;;4924405;29;20636;-68
2023/07/06 04:24:10;;;;;;;10.73;4.47;;;;;;;;;;4924817;29;20194;-68
2023/07/06 04:26:35;;;;;;;10.88;5.40;;;;;;;;;;4923660;29;20206;-68
2023/07/06 04:29:00;;;;;;;12.18;4.75;;;;;;;;;;4925613;29;20181;-68
2023/07/06 04:31:25;;;;;;;11.90;4.97;;;;;;;;;;4924422;29;20228;-68
2023/07/06 04:33:51;;;;;;;13.38;5.30;;;;;;;;;;4924320;29;20173;-68
2023/07/06 04:36:19;;;;;;;10.68;4.50;;;;;;;;;;4925670;29;20189;-68
2023/07/06 04:38:45;;;;;;;13.45;4.72;;;;;;;;;;4928198;29;20209;-68
2023/07/06 04:41:12;;;;;;;10.65;4.60;;;;;;;;;;4931504;29;20219;-68
2023/07/06 04:43:37;;;;;;;8.43;4.63;;;;;;;;;;4930452;29;20627;-68
2023/07/06 04:46:03;;;;;;;9.50;4.88;;;;;;;;;;4929124;29;20239;-68
2023/07/06 04:48:29;;;;;;;11.50;5.20;;;;;;;;;;4932816;29;20260;-68
2023/07/06 04:50:54;;;;;;;10.98;4.65;;;;;;;;;;4932306;29;20625;-68
2023/07/06 04:53:20;;;;;;;13.93;5.18;;;;;;;;;;4936418;29;20280;-68
2023/07/06 04:55:46;;;;;;;13.60;4.75;;;;;;;;;;4937778;29;20370;-68
2023/07/06 04:58:11;;;;;;;16.83;5.07;;;;;;;;;;4927937;29;20195;-68
2023/07/06 05:00:39;;;;;;;7.82;4.30;;;;;;;;;;4939795;28;21453;-67
2023/07/06 05:03:08;;;;;;;10.13;5.20;;;;;;;;;;4929163;29;20583;-67
2023/07/06 05:05:36;;;;;;;11.35;4.82;;;;;;;;;;4942431;28;20169;-67
2023/07/06 05:08:02;;;;;;;12.65;4.38;;;;;;;;;;4934414;29;20182;-67
2023/07/06 05:10:27;;;;;;;22.40;6.53;;;;;;;;;;4935721;29;20648;-67
2023/07/06 05:12:55;;;;;;;13.48;5.93;;;;;;;;;;4933380;29;20213;-67
2023/07/06 05:15:20;;;;;;;14.50;5.07;;;;;;;;;;4937580;29;20229;-67
2023/07/06 05:17:46;;;;;;;15.75;5.47;;;;;;;;;;4934223;29;20172;-67
2023/07/06 05:20:14;;;;;;;14.32;5.38;;;;;;;;;;4939843;29;20256;-67
2023/07/06 05:22:40;;;;;;;19.70;6.25;;;;;;;;;;4936924;29;20208;-67
2023/07/06 05:25:06;;;;;;;21.17;5.28;;;;;;;;;;4932046;29;20186;-67
2023/07/06 05:27:32;;;;;;;12.73;5.60;;;;;;;;;;4927358;29;20678;-67
2023/07/06 05:29:57;;;;;;;14.20;5.90;;;;;;;;;;4938093;29;20189;-67
2023/07/06 05:32:22;;;;;;;13.48;6.20;;;;;;;;;;4941521;29;20206;-67
2023/07/06 05:34:47;;;;;;;19.00;7.00;;;;;;;;;;4932420;29;20210;-67
2023/07/06 05:37:13;;;;;;;14.52;6.43;;;;;;;;;;4925576;29;20178;-67
2023/07/06 05:39:38;;;;;;;14.95;6.70;;;;;;;;;;4921904;29;20831;-67
2023/07/06 05:42:03;;;;;;;19.35;8.43;;;;;;;;;;4924264;29;20708;-66
2023/07/06 05:44:28;;;;;;;25.60;7.95;;;;;;;;;;4923854;29;20699;-66
2023/07/06 05:46:54;;;;;;;20.20;6.30;;;;;;;;;;4922826;29;20198;-66
2023/07/06 05:49:19;;;;;;;17.33;7.90;;;;;;;;;;4924051;29;22203;-67
2023/07/06 05:51:44;;;;;;;18.30;7.32;;;;;;;;;;4921994;29;20201;-67
2023/07/06 05:54:09;;;;;;;19.10;7.10;;;;;;;;;;4923692;29;20573;-68
2023/07/06 05:56:36;;;;;;;19.90;8.52;;;;;;;;;;4923521;29;20209;-67
2023/07/06 05:59:04;;;;;;;12.73;6.80;;;;;;;;;;4922965;29;20182;-67
2023/07/06 06:01:29;;;;;;;13.63;7.80;;;;;;;;;;4918811;29;20202;-67
2023/07/06 06:03:55;;;;;;;11.18;7.45;;;;;;;;;;4921815;29;20571;-67
2023/07/06 06:06:21;;;;;;;14.40;7.50;;;;;;;;;;4922943;29;20592;-67
2023/07/06 06:08:46;;;;;;;16.13;7.88;;;;;;;;;;4923259;29;20600;-67
2023/07/06 06:11:11;;;;;;;19.23;8.18;;;;;;;;;;4924896;29;20277;-68
2023/07/06 06:13:36;;;;;;;19.00;7.68;;;;;;;;;;4979421;23;20448;-70
2023/07/06 06:16:03;;;;;;;16.63;7.93;;;;;;;;;;4972975;28;20194;-70
2023/07/06 06:18:28;;;;;;;22.80;8.10;;;;;;;;;;4974368;28;21754;-71
2023/07/06 06:20:53;;;;;;;14.50;8.63;;;;;;;;;;4973132;28;20176;-72
2023/07/06 06:23:20;;;;;;;11.63;8.00;;;;;;;;;;4976249;28;20296;-72
2023/07/06 06:25:46;;;;;;;13.93;8.25;;;;;;;;;;4976112;28;20209;-72
2023/07/06 06:28:11;;;;;;;20.48;9.55;;;;;;;;;;4974078;28;20185;-72
2023/07/06 06:30:40;;;;;;;14.68;8.20;;;;;;;;;;4975029;28;20531;-72
2023/07/06 06:33:06;;;;;;;17.92;9.45;;;;;;;;;;4974798;28;20657;-72
2023/07/06 06:35:33;;;;;;;17.40;8.38;;;;;;;;;;4972606;28;20705;-72
2023/07/06 06:37:58;;;;;;;19.42;8.32;;;;;;;;;;4973640;28;20498;-72
2023/07/06 06:40:24;;;;;;;16.10;9.60;;;;;;;;;;4978977;28;20638;-72
2023/07/06 06:42:50;;;;;;;16.27;8.40;;;;;;;;;;4980001;28;20202;-72
2023/07/06 06:45:16;;;;;;;19.40;9.30;;;;;;;;;;4977399;28;20706;-72
2023/07/06 06:47:41;;;;;;;13.43;7.63;;;;;;;;;;4977645;28;20199;-72
2023/07/06 06:50:09;;;;;;;13.98;8.35;;;;;;;;;;4975244;28;20234;-70
2023/07/06 06:52:34;;;;;;;17.52;9.27;;;;;;;;;;4973651;28;20211;-70
2023/07/06 06:54:59;;;;;;;18.33;8.75;;;;;;;;;;4978155;28;20189;-70
2023/07/06 06:57:25;;;;;;;17.95;8.02;;;;;;;;;;4978428;28;20188;-70
2023/07/06 06:59:50;;;;;;;13.23;7.95;;;;;;;;;;4968360;28;20184;-71
2023/07/06 07:02:15;;;;;;;15.35;7.15;;;;;;;;;;4975129;28;20207;-70
2023/07/06 07:04:40;;;;;;;13.85;7.30;;;;;;;;;;4977938;28;20259;-70
2023/07/06 07:07:06;;;;;;;16.70;7.20;;;;;;;;;;4976824;28;20243;-70
2023/07/06 07:09:31;;;;;;;12.52;6.75;;;;;;;;;;4974410;28;20172;-71
2023/07/06 07:11:57;;;;;;;12.80;6.65;;;;;;;;;;4973189;28;20678;-71
2023/07/06 07:14:22;;;;;;;15.68;7.25;;;;;;;;;;4976801;28;20207;-71
2023/07/06 07:16:48;;;;;;;13.95;6.75;;;;;;;;;;4977569;28;20577;-71
2023/07/06 07:19:14;;;;;;;14.82;8.20;;;;;;;;;;4977155;28;20186;-71
2023/07/06 07:21:39;;;;;;;10.38;7.60;;;;;;;;;;4965191;28;20638;-71
2023/07/06 07:24:05;;;;;;;10.90;6.57;;;;;;;;;;4980289;28;20188;-72
2023/07/06 07:26:30;;;;;;;10.98;6.68;;;;;;;;;;4977791;28;20203;-73
2023/07/06 07:28:56;;;;;;;12.13;6.97;;;;;;;;;;4976633;28;20187;-72
2023/07/06 07:31:22;;;;;;;14.55;6.55;;;;;;;;;;4979946;28;20184;-72
2023/07/06 07:33:47;;;;;;;10.75;6.53;;;;;;;;;;4984243;28;20677;-72
2023/07/06 07:36:13;;;;;;;16.23;7.15;;;;;;;;;;4986564;28;20496;-72
2023/07/06 07:38:38;;;;;;;10.50;5.93;;;;;;;;;;4983998;28;20177;-71
2023/07/06 07:41:06;;;;;;;9.98;5.90;;;;;;;;;;4981573;28;20185;-71
2023/07/06 07:43:32;;;;;;;14.65;6.00;;;;;;;;;;4987831;28;20204;-71
2023/07/06 07:46:05;;;;;;;9.70;5.43;;;;;;;;;;4978837;28;20202;-72
2023/07/06 07:48:33;;;;;;;11.93;5.55;;;;;;;;;;4981643;28;20203;-71
2023/07/06 07:50:58;;;;;;;14.13;6.13;;;;;;;;;;4982561;28;20560;-72
2023/07/06 07:53:25;;;;;;;13.00;6.93;;;;;;;;;;4983127;28;20292;-71
2023/07/06 07:55:52;;;;;;;14.85;6.68;;;;;;;;;;4976458;28;20592;-71
2023/07/06 07:58:17;;;;;;;12.48;6.63;;;;;;;;;;4984786;28;20175;-71
2023/07/06 08:00:49;;;;;;;14.95;5.97;;;;;;;;;;4977300;28;20204;-71
2023/07/06 08:03:15;;;;;;;11.40;5.88;;;;;;;;;;4989896;28;20206;-71
2023/07/06 08:05:42;;;;;;;12.20;6.78;;;;;;;;;;4987352;28;20459;-71
2023/07/06 08:08:09;;;;;;;10.40;6.03;;;;;;;;;;4988136;28;20563;-71
2023/07/06 08:10:35;;;;;;;13.13;6.35;;;;;;;;;;4985129;28;20172;-71
2023/07/06 08:13:00;;;;;;;14.50;6.72;;;;;;;;;;4989153;28;20215;-71
2023/07/06 08:15:26;;;;;;;9.32;6.30;;;;;;;;;;4974070;28;20625;-72
2023/07/06 08:17:51;;;;;;;8.80;5.03;;;;;;;;;;4981536;28;20172;-71
2023/07/06 08:20:17;;;;;;;10.50;4.90;;;;;;;;;;4986913;28;20250;-71
2023/07/06 08:22:42;;;;;;;12.50;5.55;;;;;;;;;;4988945;28;20234;-72
2023/07/06 08:25:08;;;;;;;9.38;4.95;;;;;;;;;;4980567;28;20188;-72
2023/07/06 08:27:33;;;;;;;10.68;4.53;;;;;;;;;;4980339;28;20214;-71
2023/07/06 08:29:58;;;;;;;11.60;4.85;;;;;;;;;;4983375;28;20180;-71
2023/07/06 08:32:24;;;;;;;9.73;5.07;;;;;;;;;;4974015;28;20200;-71
2023/07/06 08:34:50;;;;;;;9.07;5.13;;;;;;;;;;4974645;28;20172;-71
2023/07/06 08:37:18;;;;;;;11.05;5.70;;;;;;;;;;4957834;28;20283;-71
2023/07/06 08:39:44;;;;;;;11.00;4.43;;;;;;;;;;4960676;28;20179;-71
2023/07/06 08:42:10;;;;;;;8.55;4.47;;;;;;;;;;4957560;28;20200;-72
2023/07/06 08:44:36;;;;;;;14.18;4.40;;;;;;;;;;4960686;28;20494;-72
2023/07/06 08:47:02;;;;;;;9.65;4.80;;;;;;;;;;4959726;28;20204;-72
2023/07/06 08:49:30;;;;;;;6.88;4.10;;;;;;;;;;4977357;28;20238;-72
2023/07/06 08:51:55;;;;;;;7.05;3.83;;;;;;;;;;4963247;28;20191;-72
2023/07/06 08:54:25;;;;;;;7.32;4.03;;;;;;;;;;4959561;28;20172;-73
2023/07/06 08:56:50;;;;;;;6.05;3.45;;;;;;;;;;4960501;28;20729;-71
2023/07/06 08:59:32;;;;;;;8.95;4.97;;;;;;;;;;4961017;28;20189;-71
2023/07/06 09:01:57;;;;;;;10.32;4.75;;;;;;;;;;4954824;28;20576;-71
2023/07/06 09:04:24;;;;;;;10.05;4.40;;;;;;;;;;4960637;28;20278;-71
2023/07/06 09:06:54;;;;;;;10.52;4.70;;;;;;;;;;4960444;28;20207;-71
2023/07/06 09:09:20;;;;;;;9.02;4.03;;;;;;;;;;4959867;28;20230;-71
2023/07/06 09:11:47;;;;;;;10.15;4.50;;;;;;;;;;4959470;28;20408;-70
2023/07/06 09:14:16;;;;;;;12.35;4.15;;;;;;;;;;4967333;28;20188;-71
2023/07/06 09:16:49;;;;;;;9.60;4.78;;;;;;;;;;4979941;28;20650;-71
2023/07/06 09:19:16;;;;;;;6.30;4.10;;;;;;;;;;4982943;28;20181;-72
2023/07/06 09:21:47;;;;;;;7.65;3.40;;;;;;;;;;4991782;28;20230;-71
2023/07/06 09:24:12;;;;;;;5.70;4.15;;;;;;;;;;4984502;28;20653;-72
2023/07/06 09:26:38;;;;;;;8.38;3.95;;;;;;;;;;4981996;28;20214;-72
2023/07/06 09:29:17;;;;;;;9.07;3.90;;;;;;;;;;4985366;28;20176;-71
2023/07/06 09:31:43;;;;;;;9.43;4.50;;;;;;;;;;4976899;28;20625;-71
2023/07/06 09:34:44;;;;;;;9.23;3.83;;;;;;;;;;4982213;28;20212;-71
2023/07/06 09:37:13;;;;;;;4.88;3.33;;;;;;;;;;4958845;28;20645;-72
2023/07/06 09:39:39;;;;;;;8.15;3.78;;;;;;;;;;4974434;28;20263;-72
2023/07/06 09:42:04;;;;;;;13.40;4.28;;;;;;;;;;4985137;28;20282;-71
2023/07/06 09:44:30;;;;;;;9.10;3.65;;;;;;;;;;4966438;28;20205;-72
2023/07/06 09:46:56;;;;;;;7.22;3.38;;;;;;;;;;4977182;28;20226;-72
2023/07/06 09:49:24;;;;;;;9.00;3.80;;;;;;;;;;4981055;28;20187;-72
2023/07/06 09:51:59;;;;;;;6.25;3.38;;;;;;;;;;4972387;28;20196;-72
2023/07/06 09:54:33;;;;;;;6.05;2.88;;;;;;;;;;4989272;28;20175;-72
2023/07/06 09:56:59;;;;;;;9.15;2.90;;;;;;;;;;4983118;28;20184;-71
2023/07/06 09:59:24;;;;;;;4.95;3.13;;;;;;;;;;4983523;28;20279;-72
2023/07/06 10:01:53;;;;;;;8.38;3.60;;;;;;;;;;4972309;28;20283;-71
2023/07/06 10:04:34;;;;;;;8.90;3.92;;;;;;;;;;4975306;28;20691;-72
2023/07/06 10:07:05;;;;;;;7.38;3.60;;;;;;;;;;4982886;28;20486;-71
2023/07/06 10:09:43;;;;;;;11.02;3.97;;;;;;;;;;4974055;28;20180;-71
2023/07/06 10:12:28;;;;;;;11.43;4.10;;;;;;;;;;4975400;28;20261;-71
2023/07/06 10:14:53;;;;;;;9.55;4.15;;;;;;;;;;4971115;28;20176;-71
2023/07/06 10:17:38;;;;;;;7.13;4.03;;;;;;;;;;4969556;28;20215;-71
2023/07/06 10:20:09;;;;;;;8.77;4.30;;;;;;;;;;4989126;28;20262;-69
2023/07/06 10:22:35;;;;;;;10.38;3.83;;;;;;;;;;4980453;28;20201;-71
2023/07/06 10:25:09;;;;;;;9.73;4.05;;;;;;;;;;4978172;28;20227;-71
2023/07/06 10:27:38;;;;;;;6.78;3.83;;;;;;;;;;4974647;28;20652;-71
2023/07/06 10:30:08;;;;;;;7.55;3.72;;;;;;;;;;4988681;28;20172;-71
2023/07/06 10:32:37;;;;;;;10.75;3.30;;;;;;;;;;4972705;28;20661;-71
2023/07/06 10:35:21;;;;;;;5.65;2.95;;;;;;;;;;4975439;28;20176;-71
2023/07/06 10:37:47;;;;;;;6.38;3.53;;;;;;;;;;4991295;28;20188;-72
2023/07/06 10:40:19;;;;;;;7.93;2.80;;;;;;;;;;4986223;28;20188;-72
2023/07/06 10:42:48;;;;;;;5.38;2.60;;;;;;;;;;4986380;28;20195;-72
2023/07/06 10:45:35;;;;;;;4.15;2.30;;;;;;;;;;4979055;28;20271;-72
2023/07/06 10:48:10;;;;;;;6.82;2.67;;;;;;;;;;4980573;28;20264;-72
2023/07/06 10:50:42;;;;;;;4.53;2.42;;;;;;;;;;4981196;28;20185;-72
2023/07/06 10:53:32;;;;;;;5.97;2.08;;;;;;;;;;4980914;28;20278;-72
2023/07/06 10:56:01;;;;;;;4.60;2.10;;;;;;;;;;4980018;28;20665;-72
2023/07/06 10:58:27;;;;;;;4.30;1.70;;;;;;;;;;4988284;28;20625;-72
2023/07/06 11:00:54;;;;;;;5.93;2.00;;;;;;;;;;4978464;28;20235;-72
2023/07/06 11:03:24;;;;;;;7.28;1.70;;;;;;;;;;4987710;28;20231;-72
2023/07/06 11:05:56;;;;;;;4.68;1.30;;;;;;;;;;4984079;28;20243;-72
2023/07/06 11:08:42;;;;;;;6.22;1.50;;;;;;;;;;4987747;28;20180;-73
2023/07/06 11:11:17;;;;;;;5.30;1.35;;;;;;;;;;4985328;28;20203;-72
2023/07/06 11:13:48;;;;;;;3.97;1.40;;;;;;;;;;4978647;28;20764;-72
2023/07/06 11:16:20;;;;;;;1.77;0.90;;;;;;;;;;4979347;28;20283;-73
2023/07/06 11:18:47;;;;;;;3.22;1.35;;;;;;;;;;4984827;28;20557;-72
2023/07/06 11:21:22;;;;;;;3.47;1.13;;;;;;;;;;4986772;28;20183;-72
2023/07/06 11:23:54;;;;;;;1.77;0.75;;;;;;;;;;4986968;28;20200;-72
2023/07/06 11:26:38;;;;;;;2.63;0.65;;;;;;;;;;4976507;28;20295;-71
2023/07/06 11:29:08;;;;;;;1.90;0.90;;;;;;;;;;4984083;28;20263;-71
2023/07/06 11:31:51;;;;;;;2.67;0.98;;;;;;;;;;4985970;28;20168;-71
2023/07/06 11:34:28;;;;;;;1.00;0.63;;;;;;;;;;4981465;28;20570;-73
2023/07/06 11:37:02;;;;;;;3.90;0.70;;;;;;;;;;4982631;28;20585;-72
2023/07/06 11:39:34;;;;;;;1.30;0.68;;;;;;;;;;4986187;28;20183;-72
2023/07/06 11:42:01;;;;;;;2.17;0.85;;;;;;;;;;4981941;28;20692;-72
2023/07/06 11:44:36;;;;;;;2.28;0.77;;;;;;;;;;4984669;28;20191;-72
2023/07/06 11:47:20;;;;;;;1.25;0.70;;;;;;;;;;4981166;28;20673;-72
2023/07/06 11:49:50;;;;;;;2.03;0.60;;;;;;;;;;4974487;28;20262;-72
2023/07/06 11:52:17;;;;;;;1.02;0.80;;;;;;;;;;4964100;28;20274;-72
2023/07/06 11:54:49;;;;;;;2.22;0.40;;;;;;;;;;4958986;28;20184;-72
2023/07/06 11:57:25;;;;;;;4.35;0.75;;;;;;;;;;4961526;28;20234;-72
2023/07/06 12:02:57;;;;;;;1.15;0.52;;;;;;;;;;4962300;28;20290;-71
2023/07/06 12:05:24;;;;;;;1.45;0.70;;;;;;;;;;4960398;28;20266;-72
2023/07/06 12:07:57;;;;;;;1.23;0.70;;;;;;;;;;4962640;28;20222;-72
2023/07/06 12:10:22;;;;;;;1.55;0.68;;;;;;;;;;4958456;28;20796;-71
2023/07/06 12:12:48;;;;;;;1.08;0.50;;;;;;;;;;4975219;23;20358;-68
2023/07/06 12:15:13;;;;;;;3.28;0.98;;;;;;;;;;4996781;28;20180;-66
2023/07/06 12:17:38;;;;;;;0.63;0.40;;;;;;;;;;5004805;28;20167;-67
2023/07/06 12:20:08;;;;;;;1.05;0.50;;;;;;;;;;4994840;28;20317;-67
2023/07/06 12:22:34;;;;;;;2.15;0.85;;;;;;;;;;4993365;28;20206;-65
2023/07/06 12:24:59;;;;;;;1.50;0.57;;;;;;;;;;4978993;28;20702;-66
2023/07/06 12:27:26;;;;;;;0.90;0.77;;;;;;;;;;4985945;28;20216;-66
2023/07/06 12:30:03;;;;;;;4.05;0.70;;;;;;;;;;4978729;28;20175;-66
2023/07/06 12:32:29;;;;;;;2.45;0.68;;;;;;;;;;4977451;28;20226;-66
2023/07/06 12:34:55;;;;;;;0.73;0.43;;;;;;;;;;4979438;28;20229;-66
2023/07/06 12:37:22;;;;;;;1.33;0.82;;;;;;;;;;4980556;28;20184;-66
2023/07/06 12:39:48;;;;;;;3.00;0.55;;;;;;;;;;4972314;28;20255;-66
2023/07/06 12:42:15;;;;;;;2.17;1.02;;;;;;;;;;4980908;28;20295;-67
2023/07/06 12:44:43;;;;;;;4.68;0.63;;;;;;;;;;4978607;28;20267;-66
2023/07/06 12:47:22;;;;;;;2.42;1.05;;;;;;;;;;4982717;28;20194;-67
2023/07/06 12:49:49;;;;;;;2.97;0.70;;;;;;;;;;4969693;28;20218;-67
2023/07/06 12:52:16;;;;;;;2.08;0.77;;;;;;;;;;4983925;28;20192;-66
2023/07/06 12:54:53;;;;;;;1.83;0.38;;;;;;;;;;4980518;28;20655;-66
2023/07/06 12:57:23;;;;;;;0.95;0.60;;;;;;;;;;4979928;28;20199;-66
2023/07/06 12:59:57;;;;;;;1.10;0.68;;;;;;;;;;4968349;28;20182;-66
2023/07/06 13:02:23;;;;;;;1.75;0.82;;;;;;;;;;4966841;28;20208;-66
2023/07/06 13:04:50;;;;;;;2.55;0.60;;;;;;;;;;4977897;28;20181;-66
2023/07/06 13:07:17;;;;;;;2.25;0.57;;;;;;;;;;4980267;28;20288;-65
2023/07/06 13:09:42;;;;;;;1.00;0.57;;;;;;;;;;4976479;28;20172;-66
2023/07/06 13:12:09;;;;;;;1.73;0.77;;;;;;;;;;4976870;28;20222;-66
2023/07/06 13:14:39;;;;;;;3.13;0.70;;;;;;;;;;4980511;28;20171;-66
2023/07/06 13:17:13;;;;;;;0.98;0.70;;;;;;;;;;4979876;28;20179;-66
2023/07/06 13:19:38;;;;;;;3.40;1.13;;;;;;;;;;4975362;28;20179;-66
2023/07/06 13:22:04;;;;;;;1.10;0.60;;;;;;;;;;4983062;28;20179;-66
2023/07/06 13:24:30;;;;;;;1.17;0.63;;;;;;;;;;4980126;28;20538;-66
2023/07/06 13:26:55;;;;;;;5.55;0.73;;;;;;;;;;4972679;28;20196;-66
2023/07/06 13:29:21;;;;;;;2.67;1.02;;;;;;;;;;4970295;28;20650;-66
2023/07/06 13:31:48;;;;;;;1.27;0.85;;;;;;;;;;4987163;28;20669;-67
2023/07/06 13:34:15;;;;;;;3.10;0.80;;;;;;;;;;4978606;28;20172;-66
2023/07/06 13:36:41;;;;;;;2.75;0.88;;;;;;;;;;4976116;28;20654;-66
2023/07/06 13:39:07;;;;;;;2.25;0.70;;;;;;;;;;4980294;28;20194;-66
2023/07/06 13:41:34;;;;;;;1.52;0.60;;;;;;;;;;4976125;28;20184;-66
2023/07/06 13:44:00;;;;;;;1.40;0.70;;;;;;;;;;4973611;28;20232;-67
2023/07/06 13:46:25;;;;;;;1.38;0.70;;;;;;;;;;4966808;28;20290;-66
2023/07/06 13:48:50;;;;;;;2.30;0.60;;;;;;;;;;4981610;28;20196;-66
2023/07/06 13:51:15;;;;;;;2.00;1.02;;;;;;;;;;4979979;28;20256;-66
2023/07/06 13:53:42;;;;;;;2.45;0.90;;;;;;;;;;4987814;28;20680;-66
2023/07/06 13:56:10;;;;;;;1.65;0.80;;;;;;;;;;4991255;28;20189;-66
2023/07/06 13:58:36;;;;;;;1.48;0.98;;;;;;;;;;4984183;28;20188;-66
2023/07/06 14:01:02;;;;;;;1.95;0.70;;;;;;;;;;4974074;28;20263;-66
2023/07/06 14:03:28;;;;;;;3.33;0.85;;;;;;;;;;4978639;28;20196;-67
2023/07/06 14:05:53;;;;;;;2.50;0.82;;;;;;;;;;4983582;28;20613;-66
2023/07/06 14:08:20;;;;;;;2.85;1.00;;;;;;;;;;4984310;28;20207;-66
2023/07/06 14:10:47;;;;;;;2.72;1.52;;;;;;;;;;5002206;28;20180;-66
2023/07/06 14:13:13;;;;;;;1.42;0.73;;;;;;;;;;4980767;28;20235;-66
2023/07/06 14:15:38;;;;;;;1.90;0.80;;;;;;;;;;4985537;28;20176;-66
2023/07/06 14:18:04;;;;;;;1.55;1.00;;;;;;;;;;4977139;28;20176;-65
2023/07/06 14:20:29;;;;;;;1.50;0.77;;;;;;;;;;4993641;28;20247;-65
2023/07/06 14:22:54;;;;;;;3.38;1.30;;;;;;;;;;4976334;28;20227;-65
2023/07/06 14:25:22;;;;;;;1.10;0.63;;;;;;;;;;4984937;28;20187;-66
2023/07/06 14:27:48;;;;;;;1.83;0.90;;;;;;;;;;4975084;28;20250;-66
2023/07/06 14:30:13;;;;;;;1.83;0.73;;;;;;;;;;4982623;28;20176;-66
2023/07/06 14:32:39;;;;;;;2.47;1.00;;;;;;;;;;4982712;28;20285;-66
2023/07/06 14:35:05;;;;;;;4.40;1.00;;;;;;;;;;4985135;28;20213;-66
2023/07/06 14:37:30;;;;;;;1.52;0.73;;;;;;;;;;4981199;28;20188;-66
2023/07/06 14:39:55;;;;;;;2.25;0.50;;;;;;;;;;4969165;28;20193;-66
2023/07/06 14:42:21;;;;;;;1.95;1.10;;;;;;;;;;4984291;28;20673;-66
2023/07/06 14:44:46;;;;;;;1.58;0.82;;;;;;;;;;4975921;28;20221;-66